| time (UTC) | temp F | wind direction | speed knots | gust knots | rain 1hr in | rain 24hr in | rain mn in | humidity % | barometer mb |
| 20260506150006 | 54 | 288 | 0.0 | 0.0 | 0.00 | 0.00 | 0.00 | 91 | 976.3 |
| 20260506144503 | 53 | 149 | 0.0 | 0.0 | 0.00 | 0.00 | 0.00 | 91 | 976.3 |
| 20260506143059 | 52 | 149 | 0.0 | 0.0 | 0.00 | 0.00 | 0.00 | 94 | 976.2 |
| 20260506141558 | 52 | 148 | 0.0 | 0.0 | 0.00 | 0.00 | 0.00 | 95 | 976.1 |
| 20260506140101 | 51 | 252 | 0.0 | 0.0 | 0.00 | 0.00 | 0.00 | 96 | 976.1 |
| 20260506134552 | 51 | 252 | 0.0 | 0.0 | 0.00 | 0.00 | 0.00 | 95 | 975.9 |
| 20260506133055 | 51 | 252 | 0.0 | 0.0 | 0.00 | 0.00 | 0.00 | 95 | 975.9 |
| 20260506131550 | 51 | 252 | 0.0 | 0.0 | 0.00 | 0.00 | 0.00 | 95 | 975.7 |
| 20260506130053 | 51 | 252 | 0.0 | 0.0 | 0.00 | 0.00 | 0.00 | 95 | 975.7 |
| 20260506124548 | 51 | 252 | 0.0 | 0.0 | 0.00 | 0.00 | 0.00 | 96 | 975.7 |
| 20260506123047 | 51 | 252 | 0.0 | 0.0 | 0.00 | 0.00 | 0.00 | 96 | 975.6 |
| 20260506121546 | 51 | 252 | 0.0 | 0.0 | 0.00 | 0.00 | 0.00 | 96 | 975.5 |
| 20260506120054 | 51 | 252 | 0.0 | 0.0 | 0.00 | 0.00 | 0.00 | 96 | 975.4 |
| 20260506114550 | 51 | 252 | 0.0 | 0.0 | 0.00 | 0.00 | 0.00 | 96 | 975.4 |
| 20260506113043 | 51 | 252 | 0.0 | 0.0 | 0.00 | 0.00 | 0.00 | 96 | 975.3 |
| 20260506111544 | 51 | 252 | 0.0 | 0.0 | 0.00 | 0.00 | 0.00 | 96 | 975.2 |
| 20260506110041 | 51 | 252 | 0.0 | 0.0 | 0.00 | 0.00 | 0.00 | 96 | 975.1 |
| 20260506104542 | 51 | 252 | 0.0 | 0.0 | 0.00 | 0.00 | 0.00 | 95 | 975.0 |
| 20260506103037 | 51 | 324 | 0.0 | 0.0 | 0.00 | 0.00 | 0.00 | 95 | 974.9 |
| 20260506101537 | 51 | 324 | 0.0 | 0.0 | 0.00 | 0.00 | 0.00 | 95 | 974.8 |
| 20260506100039 | 51 | 324 | 0.0 | 0.0 | 0.00 | 0.00 | 0.00 | 95 | 974.7 |
| 20260506094537 | 51 | 324 | 0.0 | 0.0 | 0.00 | 0.00 | 0.00 | 95 | 974.7 |
| 20260506093055 | 51 | 324 | 0.0 | 0.0 | 0.00 | 0.00 | 0.00 | 95 | 974.7 |
| 20260506091534 | 51 | 324 | 0.0 | 0.0 | 0.00 | 0.00 | 0.00 | 95 | 974.8 |
| 20260506090034 | 51 | 324 | 0.0 | 0.0 | 0.00 | 0.00 | 0.00 | 95 | 974.8 |
| 20260506084529 | 51 | 324 | 0.0 | 0.0 | 0.00 | 0.00 | 0.00 | 95 | 974.9 |
| 20260506083027 | 51 | 324 | 0.0 | 0.0 | 0.00 | 0.00 | 0.00 | 95 | 974.9 |
| 20260506081527 | 51 | 324 | 0.0 | 0.0 | 0.00 | 0.00 | 0.00 | 94 | 974.9 |
| 20260506073022 | 51 | 324 | 0.0 | 0.0 | 0.00 | 0.05 | 0.00 | 93 | 974.6 |
| 20260506071522 | 51 | 324 | 0.0 | 0.0 | 0.00 | 0.05 | 0.00 | 94 | 974.4 |
| 20260506061615 | 51 | 255 | 0.0 | 0.0 | 0.00 | 0.13 | 0.05 | 94 | 974.0 |
| 20260506044505 | 52 | 217 | 0.0 | 0.0 | 0.00 | 0.23 | 0.05 | 92 | 973.5 |
| 20260506043004 | 52 | 217 | 0.0 | 0.0 | 0.00 | 0.23 | 0.05 | 92 | 973.3 |
| 20260506041502 | 52 | 217 | 0.0 | 0.0 | 0.00 | 0.23 | 0.05 | 91 | 973.1 |
| 20260506034606 | 52 | 279 | 0.0 | 0.0 | 0.00 | 0.28 | 0.05 | 92 | 972.9 |
| 20260506033058 | 53 | 279 | 0.0 | 0.0 | 0.00 | 0.28 | 0.05 | 91 | 972.7 |
| 20260506031600 | 53 | 352 | 0.0 | 0.0 | 0.00 | 0.28 | 0.05 | 90 | 972.5 |
| 20260506030054 | 53 | 327 | 0.0 | 2.6 | 0.00 | 0.28 | 0.05 | 89 | 972.3 |
| 20260506024555 | 53 | 345 | 0.0 | 0.9 | 0.00 | 0.38 | 0.05 | 89 | 972.1 |
| 20260506023056 | 53 | 255 | 0.0 | 5.2 | 0.00 | 0.38 | 0.05 | 89 | 972.1 |
| 20260506021551 | 54 | 314 | 0.0 | 0.9 | 0.00 | 0.38 | 0.05 | 88 | 971.9 |
| 20260506020117 | 54 | 311 | 0.0 | 1.7 | 0.00 | 0.38 | 0.05 | 88 | 971.8 |
| 20260506014551 | 55 | 343 | 0.9 | 2.6 | 0.00 | 0.45 | 0.05 | 87 | 971.6 |
| 20260506013050 | 55 | 299 | 0.0 | 1.7 | 0.00 | 0.45 | 0.05 | 87 | 971.6 |
| 20260506011550 | 56 | 20 | 0.0 | 5.2 | 0.00 | 0.45 | 0.05 | 86 | 971.4 |
| 20260506010049 | 57 | 3 | 1.7 | 4.3 | 0.00 | 0.45 | 0.05 | 85 | 971.4 |
| 20260506004547 | 57 | 13 | 0.9 | 5.2 | 0.00 | 0.53 | 0.05 | 86 | 971.3 |
| 20260506003048 | 57 | 17 | 0.0 | 1.7 | 0.00 | 0.53 | 0.05 | 86 | 971.3 |
| 20260506001554 | 57 | 23 | 0.0 | 3.5 | 0.00 | 0.53 | 0.05 | 86 | 971.2 |
| 20260506000059 | 57 | 19 | 0.9 | 4.3 | 0.00 | 0.53 | 0.05 | 86 | 971.1 |
| 20260505234545 | 58 | 1 | 1.7 | 5.2 | 0.00 | 0.57 | 0.05 | 86 | 971.1 |
| 20260505233050 | 58 | 39 | 0.0 | 3.5 | 0.00 | 0.57 | 0.05 | 84 | 971.1 |
| 20260505231552 | 59 | 45 | 0.9 | 5.2 | 0.00 | 0.57 | 0.05 | 84 | 971.1 |
| 20260505230049 | 59 | 292 | 1.7 | 5.2 | 0.00 | 0.57 | 0.05 | 83 | 971.2 |
| 20260505224548 | 59 | 16 | 1.7 | 6.1 | 0.00 | 0.63 | 0.05 | 84 | 971.1 |
| 20260505223042 | 59 | 349 | 0.9 | 4.3 | 0.00 | 0.63 | 0.05 | 84 | 971.2 |
| 20260505221549 | 59 | 115 | 1.7 | 5.2 | 0.00 | 0.63 | 0.05 | 85 | 971.4 |
| 20260505220048 | 59 | 342 | 2.6 | 5.2 | 0.00 | 0.63 | 0.05 | 84 | 971.4 |
| 20260505214545 | 59 | 152 | 0.0 | 3.5 | 0.00 | 0.63 | 0.05 | 84 | 971.5 |
| 20260505213037 | 59 | 317 | 0.0 | 4.3 | 0.00 | 0.63 | 0.05 | 86 | 971.6 |
| 20260505211604 | 58 | 21 | 0.9 | 4.3 | 0.00 | 0.63 | 0.05 | 85 | 971.7 |
| 20260505210041 | 59 | 251 | 0.0 | 0.9 | 0.00 | 0.63 | 0.05 | 84 | 971.8 |
| 20260505204541 | 59 | 319 | 0.0 | 0.9 | 0.00 | 0.63 | 0.05 | 85 | 971.8 |
| 20260505203031 | 58 | 9 | 0.0 | 1.7 | 0.00 | 0.63 | 0.05 | 86 | 971.7 |
| 20260505201533 | 57 | 34 | 0.0 | 2.6 | 0.00 | 0.63 | 0.05 | 86 | 971.9 |
| 20260505200028 | 56 | 7 | 0.0 | 2.6 | 0.00 | 0.63 | 0.05 | 87 | 971.9 |
| 20260505194523 | 56 | 103 | 0.0 | 0.0 | 0.00 | 0.63 | 0.05 | 89 | 971.9 |
| 20260505193021 | 55 | 346 | 0.0 | 1.7 | 0.00 | 0.63 | 0.05 | 89 | 972.0 |
| 20260505191520 | 55 | 243 | 0.0 | 1.7 | 0.00 | 0.63 | 0.05 | 89 | 971.9 |
| 20260505190023 | 55 | 278 | 0.0 | 3.5 | 0.00 | 0.63 | 0.05 | 90 | 971.9 |
| 20260505184517 | 55 | 281 | 0.0 | 1.7 | 0.00 | 0.63 | 0.05 | 91 | 971.8 |
| 20260505183016 | 54 | 261 | 0.0 | 1.7 | 0.00 | 0.63 | 0.05 | 91 | 971.7 |
| 20260505181514 | 54 | 346 | 0.0 | 2.6 | 0.00 | 0.63 | 0.05 | 91 | 971.8 |
| 20260505180013 | 54 | 338 | 0.0 | 1.7 | 0.00 | 0.63 | 0.05 | 91 | 971.7 |
| 20260505174509 | 54 | 248 | 0.0 | 0.9 | 0.00 | 0.63 | 0.05 | 91 | 971.6 |
| 20260505173006 | 53 | 320 | 0.0 | 1.7 | 0.00 | 0.63 | 0.05 | 93 | 971.4 |
| 20260505171507 | 53 | 341 | 0.0 | 0.9 | 0.00 | 0.63 | 0.05 | 94 | 971.2 |
| 20260505170003 | 52 | 283 | 0.0 | 1.7 | 0.00 | 0.63 | 0.05 | 94 | 971.3 |
| 20260505164600 | 52 | 125 | 0.0 | 0.0 | 0.00 | 0.63 | 0.05 | 95 | 971.5 |
| 20260505163058 | 51 | 243 | 0.0 | 0.0 | 0.00 | 0.63 | 0.05 | 96 | 971.4 |
| 20260505161556 | 51 | 78 | 0.0 | 0.0 | 0.00 | 0.63 | 0.05 | 96 | 971.2 |
| 20260505153049 | 50 | 20 | 0.0 | 0.9 | 0.00 | 0.63 | 0.05 | 98 | 970.9 |
| 20260505151548 | 50 | 349 | 0.0 | 0.9 | 0.00 | 0.63 | 0.05 | 98 | 970.8 |